ENSG/SOG METAR and TAF weather

Enter ICAO airport designator
Station Type Date Time Source
ENSG METAR 2018/04/21 10:50 UTC NOAA

ENSG 211050Z 23017KT 9999 VCSH FEW015 SCT035 06/02 Q1015 RMK WIND 3806FT 27040KT


Station Type Date Time Source
ENSG Decoded METAR 2018/04/21 10:50 UTC NOAA

Sogndal / Haukasen, Norway (ENSG) 61-09N 007-08E 497M
Apr 21, 2018 - 06:50 AM EDT / 2018.04.21 1050 UTC
Wind: from the SW (230 degrees) at 20 MPH (17 KT):0
Visibility: greater than 7 mile(s):0
Sky conditions: partly cloudy
Weather: showers in the vicinity
Temperature: 42 F (6 C)
Dew Point: 35 F (2 C)
Relative Humidity: 75%
Pressure (altimeter): 29.97 in. Hg (1015 hPa)
ob: ENSG 211050Z 23017KT 9999 VCSH FEW015 SCT035 06/02 Q1015 RMK WIND 3806FT 27040KT
cycle: 11

Station Type Date Time Source
ENSG TAF UTC NOAA

Error!


Example: see airport list